sensor_id;sensor_type;location;lat;lon;timestamp;pressure;altitude;pressure_sealevel;temperature;humidity
25638;BME280;13496;51.040;13.680;2023-05-10T00:01:06;99298.97;;;21.96;44.03
25638;BME280;13496;51.040;13.680;2023-05-10T00:06:07;99300.22;;;21.94;43.79
25638;BME280;13496;51.040;13.680;2023-05-10T00:11:09;99289.06;;;21.92;43.86
25638;BME280;13496;51.040;13.680;2023-05-10T00:16:11;99287.44;;;21.91;44.07
25638;BME280;13496;51.040;13.680;2023-05-10T00:21:14;99285.03;;;21.89;43.54
25638;BME280;13496;51.040;13.680;2023-05-10T00:26:16;99278.94;;;21.89;43.87
25638;BME280;13496;51.040;13.680;2023-05-10T00:31:21;99281.22;;;21.85;43.98
25638;BME280;13496;51.040;13.680;2023-05-10T00:36:23;99270.84;;;21.84;43.68
25638;BME280;13496;51.040;13.680;2023-05-10T00:41:24;99267.66;;;21.82;43.93
25638;BME280;13496;51.040;13.680;2023-05-10T00:46:26;99261.75;;;21.80;44.09
25638;BME280;13496;51.040;13.680;2023-05-10T00:51:28;99253.28;;;21.78;43.98
25638;BME280;13496;51.040;13.680;2023-05-10T00:56:30;99264.03;;;21.76;43.92
25638;BME280;13496;51.040;13.680;2023-05-10T01:01:32;99257.97;;;21.75;44.13
25638;BME280;13496;51.040;13.680;2023-05-10T01:06:34;99251.31;;;21.73;44.17
25638;BME280;13496;51.040;13.680;2023-05-10T01:11:36;99255.97;;;21.71;43.90
25638;BME280;13496;51.040;13.680;2023-05-10T01:16:40;99253.56;;;21.69;44.12
25638;BME280;13496;51.040;13.680;2023-05-10T01:21:49;99248.50;;;21.68;44.20
25638;BME280;13496;51.040;13.680;2023-05-10T01:32:43;99244.91;;;21.62;44.19
25638;BME280;13496;51.040;13.680;2023-05-10T01:38:18;99239.84;;;21.61;44.13
25638;BME280;13496;51.040;13.680;2023-05-10T01:43:23;99235.59;;;21.60;44.41
25638;BME280;13496;51.040;13.680;2023-05-10T01:48:28;99241.13;;;21.58;44.11
25638;BME280;13496;51.040;13.680;2023-05-10T01:53:33;99247.63;;;21.56;44.32
25638;BME280;13496;51.040;13.680;2023-05-10T01:58:39;99237.50;;;21.53;44.42
25638;BME280;13496;51.040;13.680;2023-05-10T02:03:42;99230.81;;;21.50;44.48
25638;BME280;13496;51.040;13.680;2023-05-10T02:08:45;99232.47;;;21.51;44.12
25638;BME280;13496;51.040;13.680;2023-05-10T02:13:49;99236.56;;;21.47;44.21
25638;BME280;13496;51.040;13.680;2023-05-10T02:18:52;99230.69;;;21.45;44.51
25638;BME280;13496;51.040;13.680;2023-05-10T02:23:55;99222.16;;;21.43;44.48
25638;BME280;13496;51.040;13.680;2023-05-10T02:28:58;99232.16;;;21.41;44.36
25638;BME280;13496;51.040;13.680;2023-05-10T02:34:00;99235.81;;;21.40;44.34
25638;BME280;13496;51.040;13.680;2023-05-10T02:39:03;99220.84;;;21.34;44.51
25638;BME280;13496;51.040;13.680;2023-05-10T02:44:06;99223.50;;;21.34;44.40
25638;BME280;13496;51.040;13.680;2023-05-10T02:49:09;99221.84;;;21.33;44.35
25638;BME280;13496;51.040;13.680;2023-05-10T02:54:14;99218.63;;;21.31;44.58
25638;BME280;13496;51.040;13.680;2023-05-10T02:59:17;99218.03;;;21.29;44.34
25638;BME280;13496;51.040;13.680;2023-05-10T03:04:18;99223.31;;;21.29;44.55
25638;BME280;13496;51.040;13.680;2023-05-10T03:09:20;99231.88;;;21.24;44.16
25638;BME280;13496;51.040;13.680;2023-05-10T03:19:53;99226.03;;;21.22;44.42
25638;BME280;13496;51.040;13.680;2023-05-10T03:24:57;99219.34;;;21.19;44.82
25638;BME280;13496;51.040;13.680;2023-05-10T03:30:02;99218.53;;;21.19;44.59
25638;BME280;13496;51.040;13.680;2023-05-10T03:35:11;99212.66;;;21.17;44.79
25638;BME280;13496;51.040;13.680;2023-05-10T03:40:14;99214.50;;;21.16;44.88
25638;BME280;13496;51.040;13.680;2023-05-10T03:45:18;99220.00;;;21.15;44.68
25638;BME280;13496;51.040;13.680;2023-05-10T03:50:20;99221.59;;;21.16;44.81
25638;BME280;13496;51.040;13.680;2023-05-10T03:55:23;99235.81;;;21.15;44.68
25638;BME280;13496;51.040;13.680;2023-05-10T04:00:25;99228.13;;;21.13;44.46
25638;BME280;13496;51.040;13.680;2023-05-10T04:05:30;99233.38;;;21.13;44.90
25638;BME280;13496;51.040;13.680;2023-05-10T04:10:31;99236.25;;;21.12;44.46
25638;BME280;13496;51.040;13.680;2023-05-10T04:15:33;99238.66;;;21.13;44.66
25638;BME280;13496;51.040;13.680;2023-05-10T04:20:35;99224.91;;;21.11;44.59
25638;BME280;13496;51.040;13.680;2023-05-10T04:25:36;99228.56;;;21.10;44.66
25638;BME280;13496;51.040;13.680;2023-05-10T04:30:38;99225.72;;;21.12;44.71
25638;BME280;13496;51.040;13.680;2023-05-10T04:35:40;99224.66;;;21.13;44.99
25638;BME280;13496;51.040;13.680;2023-05-10T04:40:42;99225.94;;;21.10;44.56
25638;BME280;13496;51.040;13.680;2023-05-10T04:45:44;99220.84;;;21.09;44.95
25638;BME280;13496;51.040;13.680;2023-05-10T04:50:45;99204.22;;;21.08;44.97
25638;BME280;13496;51.040;13.680;2023-05-10T04:55:47;99219.25;;;21.08;45.07
25638;BME280;13496;51.040;13.680;2023-05-10T05:00:49;99213.59;;;21.04;45.00
25638;BME280;13496;51.040;13.680;2023-05-10T05:05:51;99216.81;;;21.06;44.88
25638;BME280;13496;51.040;13.680;2023-05-10T05:10:52;99209.72;;;21.07;45.01
25638;BME280;13496;51.040;13.680;2023-05-10T05:15:54;99217.28;;;21.03;45.00
25638;BME280;13496;51.040;13.680;2023-05-10T05:20:56;99221.28;;;21.06;45.02
25638;BME280;13496;51.040;13.680;2023-05-10T05:25:57;99205.84;;;21.09;44.92
25638;BME280;13496;51.040;13.680;2023-05-10T05:30:59;99204.22;;;21.08;44.89
25638;BME280;13496;51.040;13.680;2023-05-10T05:36:02;99202.19;;;21.10;44.87
25638;BME280;13496;51.040;13.680;2023-05-10T05:41:04;99207.00;;;21.13;44.69
25638;BME280;13496;51.040;13.680;2023-05-10T05:46:06;99205.78;;;21.16;44.80
25638;BME280;13496;51.040;13.680;2023-05-10T05:51:07;99206.56;;;21.16;44.93
25638;BME280;13496;51.040;13.680;2023-05-10T05:56:09;99215.66;;;21.20;44.98
25638;BME280;13496;51.040;13.680;2023-05-10T06:01:11;99214.66;;;21.21;44.80
25638;BME280;13496;51.040;13.680;2023-05-10T06:06:12;99216.84;;;21.24;44.70
25638;BME280;13496;51.040;13.680;2023-05-10T06:11:14;99213.19;;;21.25;44.96
25638;BME280;13496;51.040;13.680;2023-05-10T06:16:16;99217.22;;;21.28;44.85
25638;BME280;13496;51.040;13.680;2023-05-10T06:21:19;99217.59;;;21.32;44.50
25638;BME280;13496;51.040;13.680;2023-05-10T06:26:20;99225.34;;;21.33;44.51
25638;BME280;13496;51.040;13.680;2023-05-10T06:31:22;99222.47;;;21.35;44.59
25638;BME280;13496;51.040;13.680;2023-05-10T06:36:24;99223.88;;;21.37;44.45
25638;BME280;13496;51.040;13.680;2023-05-10T06:41:27;99227.06;;;21.39;44.46
25638;BME280;13496;51.040;13.680;2023-05-10T06:46:29;99220.56;;;21.42;44.46
25638;BME280;13496;51.040;13.680;2023-05-10T06:51:31;99216.69;;;21.44;44.51
25638;BME280;13496;51.040;13.680;2023-05-10T06:56:32;99223.13;;;21.48;44.24
25638;BME280;13496;51.040;13.680;2023-05-10T07:01:34;99221.91;;;21.51;44.13
25638;BME280;13496;51.040;13.680;2023-05-10T07:06:36;99224.06;;;21.54;44.46
25638;BME280;13496;51.040;13.680;2023-05-10T07:11:38;99223.63;;;21.57;44.30
25638;BME280;13496;51.040;13.680;2023-05-10T07:16:39;99228.47;;;21.60;44.45
25638;BME280;13496;51.040;13.680;2023-05-10T07:21:41;99217.47;;;21.63;44.26
25638;BME280;13496;51.040;13.680;2023-05-10T07:26:44;99220.69;;;21.65;44.38
25638;BME280;13496;51.040;13.680;2023-05-10T07:31:46;99214.97;;;21.68;44.20
25638;BME280;13496;51.040;13.680;2023-05-10T07:36:48;99227.75;;;21.71;44.09
25638;BME280;13496;51.040;13.680;2023-05-10T07:41:49;99221.78;;;21.76;44.28
25638;BME280;13496;51.040;13.680;2023-05-10T07:46:51;99223.19;;;21.79;44.27
25638;BME280;13496;51.040;13.680;2023-05-10T07:51:53;99226.44;;;21.81;43.77
25638;BME280;13496;51.040;13.680;2023-05-10T07:56:55;99216.44;;;21.83;44.18
25638;BME280;13496;51.040;13.680;2023-05-10T08:01:57;99221.28;;;21.86;44.07
25638;BME280;13496;51.040;13.680;2023-05-10T08:06:58;99214.50;;;21.90;43.87
25638;BME280;13496;51.040;13.680;2023-05-10T08:12:00;99217.75;;;21.92;44.22
25638;BME280;13496;51.040;13.680;2023-05-10T08:17:03;99219.94;;;21.95;43.97
25638;BME280;13496;51.040;13.680;2023-05-10T08:22:05;99213.41;;;21.97;44.07
25638;BME280;13496;51.040;13.680;2023-05-10T08:27:07;99220.09;;;22.00;44.01
25638;BME280;13496;51.040;13.680;2023-05-10T08:32:09;99224.91;;;22.03;44.03
25638;BME280;13496;51.040;13.680;2023-05-10T08:37:11;99226.28;;;22.06;43.94
25638;BME280;13496;51.040;13.680;2023-05-10T08:42:16;99229.53;;;22.08;43.96
25638;BME280;13496;51.040;13.680;2023-05-10T08:47:21;99240.47;;;22.11;43.97
25638;BME280;13496;51.040;13.680;2023-05-10T08:52:26;99248.94;;;22.13;43.85
25638;BME280;13496;51.040;13.680;2023-05-10T08:57:29;99250.97;;;22.18;44.00
25638;BME280;13496;51.040;13.680;2023-05-10T09:02:31;99251.34;;;22.21;43.88
25638;BME280;13496;51.040;13.680;2023-05-10T09:07:32;99252.50;;;22.26;43.73
25638;BME280;13496;51.040;13.680;2023-05-10T09:12:35;99252.84;;;22.29;43.81
25638;BME280;13496;51.040;13.680;2023-05-10T09:17:38;99264.59;;;22.33;43.53
25638;BME280;13496;51.040;13.680;2023-05-10T09:22:41;99263.31;;;22.36;43.89
25638;BME280;13496;51.040;13.680;2023-05-10T09:27:47;99259.22;;;22.40;43.38
25638;BME280;13496;51.040;13.680;2023-05-10T09:32:49;99260.38;;;22.44;43.61
25638;BME280;13496;51.040;13.680;2023-05-10T09:37:54;99258.28;;;22.46;43.36
25638;BME280;13496;51.040;13.680;2023-05-10T09:42:58;99266.94;;;22.53;43.52
25638;BME280;13496;51.040;13.680;2023-05-10T09:48:01;99260.97;;;22.58;43.16
25638;BME280;13496;51.040;13.680;2023-05-10T09:53:03;99262.97;;;22.62;43.08
25638;BME280;13496;51.040;13.680;2023-05-10T09:58:05;99267.91;;;22.70;42.84
25638;BME280;13496;51.040;13.680;2023-05-10T10:03:16;99260.22;;;22.81;42.91
25638;BME280;13496;51.040;13.680;2023-05-10T10:08:18;99257.47;;;22.87;42.55
25638;BME280;13496;51.040;13.680;2023-05-10T10:13:20;99259.47;;;22.92;42.66
25638;BME280;13496;51.040;13.680;2023-05-10T10:18:22;99265.91;;;22.96;42.60
25638;BME280;13496;51.040;13.680;2023-05-10T10:23:28;99259.69;;;23.02;42.42
25638;BME280;13496;51.040;13.680;2023-05-10T10:28:40;99264.88;;;23.09;42.38
25638;BME280;13496;51.040;13.680;2023-05-10T10:34:00;99256.03;;;23.15;42.44
25638;BME280;13496;51.040;13.680;2023-05-10T10:39:08;99262.81;;;23.23;42.34
25638;BME280;13496;51.040;13.680;2023-05-10T10:49:30;99269.50;;;23.37;42.44
25638;BME280;13496;51.040;13.680;2023-05-10T10:54:32;99263.16;;;23.38;42.06
25638;BME280;13496;51.040;13.680;2023-05-10T10:59:34;99264.53;;;23.40;41.87
25638;BME280;13496;51.040;13.680;2023-05-10T11:04:42;99259.59;;;23.44;42.37
25638;BME280;13496;51.040;13.680;2023-05-10T11:09:47;99267.28;;;23.46;42.02
25638;BME280;13496;51.040;13.680;2023-05-10T11:14:57;99265.56;;;23.51;41.80
25638;BME280;13496;51.040;13.680;2023-05-10T11:20:13;99263.25;;;23.55;42.14
25638;BME280;13496;51.040;13.680;2023-05-10T11:25:15;99269.22;;;23.62;42.00
25638;BME280;13496;51.040;13.680;2023-05-10T11:30:17;99265.22;;;23.71;42.00
25638;BME280;13496;51.040;13.680;2023-05-10T11:35:19;99270.03;;;23.74;41.83
25638;BME280;13496;51.040;13.680;2023-05-10T11:40:23;99273.03;;;23.78;41.71
25638;BME280;13496;51.040;13.680;2023-05-10T11:45:26;99270.59;;;23.88;41.84
25638;BME280;13496;51.040;13.680;2023-05-10T11:50:29;99275.28;;;23.98;41.75
25638;BME280;13496;51.040;13.680;2023-05-10T11:55:33;99275.16;;;24.04;41.74
25638;BME280;13496;51.040;13.680;2023-05-10T12:00:35;99279.19;;;24.07;41.55
25638;BME280;13496;51.040;13.680;2023-05-10T12:05:37;99278.69;;;24.10;41.36
25638;BME280;13496;51.040;13.680;2023-05-10T12:10:39;99282.72;;;24.12;41.26
25638;BME280;13496;51.040;13.680;2023-05-10T12:15:42;99281.31;;;24.22;41.28
25638;BME280;13496;51.040;13.680;2023-05-10T12:20:44;99284.94;;;24.32;41.04
25638;BME280;13496;51.040;13.680;2023-05-10T12:25:46;99287.44;;;24.22;41.08
25638;BME280;13496;51.040;13.680;2023-05-10T12:30:47;99297.69;;;24.19;41.27
25638;BME280;13496;51.040;13.680;2023-05-10T12:35:51;99287.09;;;24.19;41.62
25638;BME280;13496;51.040;13.680;2023-05-10T12:40:53;99295.13;;;24.24;41.42
25638;BME280;13496;51.040;13.680;2023-05-10T12:45:55;99304.78;;;24.30;41.42
25638;BME280;13496;51.040;13.680;2023-05-10T12:50:57;99299.81;;;24.33;41.29
25638;BME280;13496;51.040;13.680;2023-05-10T12:55:59;99308.13;;;24.37;41.29
25638;BME280;13496;51.040;13.680;2023-05-10T13:01:01;99317.09;;;24.36;41.48
25638;BME280;13496;51.040;13.680;2023-05-10T13:06:03;99314.94;;;24.33;41.45
25638;BME280;13496;51.040;13.680;2023-05-10T13:11:05;99320.78;;;24.35;41.55
25638;BME280;13496;51.040;13.680;2023-05-10T13:16:07;99311.22;;;24.34;41.41
25638;BME280;13496;51.040;13.680;2023-05-10T13:21:09;99317.59;;;24.33;41.80
25638;BME280;13496;51.040;13.680;2023-05-10T13:26:10;99321.84;;;24.34;41.50
25638;BME280;13496;51.040;13.680;2023-05-10T13:31:12;99316.28;;;24.35;41.24
25638;BME280;13496;51.040;13.680;2023-05-10T13:36:14;99312.97;;;24.40;41.56
25638;BME280;13496;51.040;13.680;2023-05-10T13:41:16;99311.13;;;24.41;41.37
25638;BME280;13496;51.040;13.680;2023-05-10T13:46:17;99306.63;;;24.41;41.45
25638;BME280;13496;51.040;13.680;2023-05-10T13:51:19;99306.97;;;24.45;41.54
25638;BME280;13496;51.040;13.680;2023-05-10T13:56:21;99311.22;;;24.46;41.52
25638;BME280;13496;51.040;13.680;2023-05-10T14:01:23;99307.50;;;24.47;41.49
25638;BME280;13496;51.040;13.680;2023-05-10T14:06:24;99303.84;;;24.48;41.46
25638;BME280;13496;51.040;13.680;2023-05-10T14:11:26;99306.50;;;24.48;41.67
25638;BME280;13496;51.040;13.680;2023-05-10T14:16:28;99303.84;;;24.48;41.38
25638;BME280;13496;51.040;13.680;2023-05-10T14:21:29;99305.66;;;24.47;41.44
25638;BME280;13496;51.040;13.680;2023-05-10T14:26:32;99298.88;;;24.39;41.71
25638;BME280;13496;51.040;13.680;2023-05-10T14:31:34;99306.03;;;24.39;41.50
25638;BME280;13496;51.040;13.680;2023-05-10T14:36:36;99300.06;;;24.44;41.63
25638;BME280;13496;51.040;13.680;2023-05-10T14:41:38;99299.34;;;24.48;41.63
25638;BME280;13496;51.040;13.680;2023-05-10T14:46:42;99301.66;;;24.45;41.68
25638;BME280;13496;51.040;13.680;2023-05-10T14:51:43;99301.75;;;24.38;41.38
25638;BME280;13496;51.040;13.680;2023-05-10T14:56:46;99302.69;;;24.44;41.38
25638;BME280;13496;51.040;13.680;2023-05-10T15:01:50;99303.72;;;24.43;41.62
25638;BME280;13496;51.040;13.680;2023-05-10T15:06:51;99310.75;;;24.49;41.73
25638;BME280;13496;51.040;13.680;2023-05-10T15:11:54;99314.44;;;24.48;41.55
25638;BME280;13496;51.040;13.680;2023-05-10T15:16:56;99316.03;;;24.49;41.63
25638;BME280;13496;51.040;13.680;2023-05-10T15:21:57;99318.69;;;24.49;41.23
25638;BME280;13496;51.040;13.680;2023-05-10T15:26:59;99316.97;;;24.43;41.09
25638;BME280;13496;51.040;13.680;2023-05-10T15:32:02;99326.78;;;24.42;41.32
25638;BME280;13496;51.040;13.680;2023-05-10T15:37:04;99326.25;;;24.40;41.44
25638;BME280;13496;51.040;13.680;2023-05-10T15:42:06;99325.53;;;24.33;41.60
25638;BME280;13496;51.040;13.680;2023-05-10T15:47:07;99337.88;;;24.27;41.92
25638;BME280;13496;51.040;13.680;2023-05-10T15:52:09;99326.59;;;24.20;42.04
25638;BME280;13496;51.040;13.680;2023-05-10T15:57:11;99345.41;;;24.19;42.05
25638;BME280;13496;51.040;13.680;2023-05-10T16:02:13;99339.53;;;24.17;42.08
25638;BME280;13496;51.040;13.680;2023-05-10T16:07:14;99344.03;;;24.16;42.18
25638;BME280;13496;51.040;13.680;2023-05-10T16:12:16;99338.06;;;24.09;42.70
25638;BME280;13496;51.040;13.680;2023-05-10T16:17:18;99350.75;;;24.07;42.42
25638;BME280;13496;51.040;13.680;2023-05-10T16:22:20;99351.75;;;24.06;42.51
25638;BME280;13496;51.040;13.680;2023-05-10T16:27:22;99351.66;;;24.01;42.80
25638;BME280;13496;51.040;13.680;2023-05-10T16:32:24;99350.88;;;24.00;42.12
25638;BME280;13496;51.040;13.680;2023-05-10T16:37:26;99364.34;;;23.99;42.07
25638;BME280;13496;51.040;13.680;2023-05-10T16:42:28;99366.19;;;23.98;41.39
25638;BME280;13496;51.040;13.680;2023-05-10T16:47:30;99373.00;;;23.94;41.77
25638;BME280;13496;51.040;13.680;2023-05-10T16:52:33;99379.78;;;23.90;41.33
25638;BME280;13496;51.040;13.680;2023-05-10T16:57:35;99384.06;;;23.91;41.39
25638;BME280;13496;51.040;13.680;2023-05-10T17:02:37;99384.28;;;23.89;41.41
25638;BME280;13496;51.040;13.680;2023-05-10T17:07:39;99381.88;;;23.88;41.27
25638;BME280;13496;51.040;13.680;2023-05-10T17:12:42;99386.84;;;23.84;41.77
25638;BME280;13496;51.040;13.680;2023-05-10T17:17:43;99398.69;;;23.82;41.48
25638;BME280;13496;51.040;13.680;2023-05-10T17:22:45;99399.75;;;23.81;41.24
25638;BME280;13496;51.040;13.680;2023-05-10T17:27:47;99401.22;;;23.77;41.35
25638;BME280;13496;51.040;13.680;2023-05-10T17:32:48;99402.25;;;23.76;41.69
25638;BME280;13496;51.040;13.680;2023-05-10T17:37:50;99403.56;;;23.73;41.87
25638;BME280;13496;51.040;13.680;2023-05-10T17:42:52;99414.34;;;23.72;42.01
25638;BME280;13496;51.040;13.680;2023-05-10T17:47:54;99419.09;;;23.70;41.84
25638;BME280;13496;51.040;13.680;2023-05-10T17:52:56;99421.16;;;23.67;42.08
25638;BME280;13496;51.040;13.680;2023-05-10T17:57:57;99428.47;;;23.65;41.82
25638;BME280;13496;51.040;13.680;2023-05-10T18:03:01;99429.75;;;23.63;41.89
25638;BME280;13496;51.040;13.680;2023-05-10T18:08:04;99429.19;;;23.61;41.92
25638;BME280;13496;51.040;13.680;2023-05-10T18:13:06;99434.91;;;23.58;42.05
25638;BME280;13496;51.040;13.680;2023-05-10T18:18:07;99442.88;;;23.58;42.87
25638;BME280;13496;51.040;13.680;2023-05-10T18:23:09;99445.16;;;23.54;42.56
25638;BME280;13496;51.040;13.680;2023-05-10T18:28:11;99447.81;;;23.54;42.93
25638;BME280;13496;51.040;13.680;2023-05-10T18:33:13;99444.59;;;23.52;43.50
25638;BME280;13496;51.040;13.680;2023-05-10T18:38:14;99445.06;;;23.49;43.54
25638;BME280;13496;51.040;13.680;2023-05-10T18:43:16;99446.91;;;23.49;43.65
25638;BME280;13496;51.040;13.680;2023-05-10T18:48:18;99458.75;;;23.46;43.84
25638;BME280;13496;51.040;13.680;2023-05-10T18:53:19;99458.19;;;23.44;43.55
25638;BME280;13496;51.040;13.680;2023-05-10T18:58:21;99464.50;;;23.43;43.73
25638;BME280;13496;51.040;13.680;2023-05-10T19:03:23;99468.19;;;23.42;43.85
25638;BME280;13496;51.040;13.680;2023-05-10T19:08:24;99477.16;;;23.41;43.81
25638;BME280;13496;51.040;13.680;2023-05-10T19:13:26;99484.31;;;23.40;43.98
25638;BME280;13496;51.040;13.680;2023-05-10T19:18:29;99489.00;;;23.38;43.27
25638;BME280;13496;51.040;13.680;2023-05-10T19:23:31;99496.38;;;23.36;43.99
25638;BME280;13496;51.040;13.680;2023-05-10T19:28:33;99505.13;;;23.37;44.25
25638;BME280;13496;51.040;13.680;2023-05-10T19:33:35;99504.53;;;23.35;44.28
25638;BME280;13496;51.040;13.680;2023-05-10T19:38:37;99505.56;;;23.34;44.16
25638;BME280;13496;51.040;13.680;2023-05-10T19:43:40;99505.78;;;23.32;44.29
25638;BME280;13496;51.040;13.680;2023-05-10T19:48:42;99499.69;;;23.32;44.40
25638;BME280;13496;51.040;13.680;2023-05-10T19:53:43;99501.75;;;23.30;44.02
25638;BME280;13496;51.040;13.680;2023-05-10T19:58:45;99501.75;;;23.30;44.32
25638;BME280;13496;51.040;13.680;2023-05-10T20:03:47;99496.69;;;23.28;44.43
25638;BME280;13496;51.040;13.680;2023-05-10T20:08:48;99493.22;;;23.28;44.43
25638;BME280;13496;51.040;13.680;2023-05-10T20:13:50;99506.69;;;23.26;44.33
25638;BME280;13496;51.040;13.680;2023-05-10T20:18:52;99507.75;;;23.25;44.40
25638;BME280;13496;51.040;13.680;2023-05-10T20:23:54;99498.41;;;23.23;44.38
25638;BME280;13496;51.040;13.680;2023-05-10T20:28:55;99507.16;;;23.23;44.47
25638;BME280;13496;51.040;13.680;2023-05-10T20:33:57;99504.13;;;23.19;44.63
25638;BME280;13496;51.040;13.680;2023-05-10T20:38:59;99510.47;;;23.18;44.58
25638;BME280;13496;51.040;13.680;2023-05-10T20:44:00;99505.19;;;23.18;44.53
25638;BME280;13496;51.040;13.680;2023-05-10T20:49:02;99512.53;;;23.16;44.56
25638;BME280;13496;51.040;13.680;2023-05-10T20:54:04;99505.63;;;23.15;44.57
25638;BME280;13496;51.040;13.680;2023-05-10T20:59:06;99501.56;;;23.13;44.46
25638;BME280;13496;51.040;13.680;2023-05-10T21:04:07;99509.75;;;23.11;44.62
25638;BME280;13496;51.040;13.680;2023-05-10T21:09:09;99513.44;;;23.10;44.66
25638;BME280;13496;51.040;13.680;2023-05-10T21:14:11;99513.63;;;23.09;44.81
25638;BME280;13496;51.040;13.680;2023-05-10T21:19:14;99507.78;;;23.07;44.64
25638;BME280;13496;51.040;13.680;2023-05-10T21:24:17;99513.28;;;23.05;44.71
25638;BME280;13496;51.040;13.680;2023-05-10T21:29:19;99506.63;;;23.03;44.65
25638;BME280;13496;51.040;13.680;2023-05-10T21:34:20;99513.72;;;23.02;44.63
25638;BME280;13496;51.040;13.680;2023-05-10T21:39:22;99514.75;;;23.01;44.66
25638;BME280;13496;51.040;13.680;2023-05-10T21:44:24;99516.84;;;22.99;44.77
25638;BME280;13496;51.040;13.680;2023-05-10T21:49:25;99510.13;;;22.97;44.25
25638;BME280;13496;51.040;13.680;2023-05-10T21:54:27;99517.28;;;22.96;44.75
25638;BME280;13496;51.040;13.680;2023-05-10T21:59:29;99521.97;;;22.94;44.71
25638;BME280;13496;51.040;13.680;2023-05-10T22:04:30;99527.50;;;22.92;44.79
25638;BME280;13496;51.040;13.680;2023-05-10T22:09:32;99521.56;;;22.90;44.51
25638;BME280;13496;51.040;13.680;2023-05-10T22:14:34;99524.44;;;22.89;44.82
25638;BME280;13496;51.040;13.680;2023-05-10T22:19:36;99525.50;;;22.88;44.74
25638;BME280;13496;51.040;13.680;2023-05-10T22:24:37;99524.09;;;22.85;44.68
25638;BME280;13496;51.040;13.680;2023-05-10T22:29:39;99522.47;;;22.84;44.85
25638;BME280;13496;51.040;13.680;2023-05-10T22:34:41;99527.97;;;22.83;44.69
25638;BME280;13496;51.040;13.680;2023-05-10T22:39:47;99530.84;;;22.81;44.96
25638;BME280;13496;51.040;13.680;2023-05-10T22:44:49;99522.31;;;22.79;44.78
25638;BME280;13496;51.040;13.680;2023-05-10T22:49:50;99526.00;;;22.78;44.84
25638;BME280;13496;51.040;13.680;2023-05-10T22:54:52;99517.47;;;22.76;44.88
25638;BME280;13496;51.040;13.680;2023-05-10T22:59:54;99526.44;;;22.75;45.05
25638;BME280;13496;51.040;13.680;2023-05-10T23:04:56;99525.63;;;22.75;44.71
25638;BME280;13496;51.040;13.680;2023-05-10T23:09:57;99529.50;;;22.72;44.87
25638;BME280;13496;51.040;13.680;2023-05-10T23:14:59;99533.44;;;22.69;44.97
25638;BME280;13496;51.040;13.680;2023-05-10T23:20:01;99530.78;;;22.69;45.09
25638;BME280;13496;51.040;13.680;2023-05-10T23:25:03;99536.50;;;22.66;45.23
25638;BME280;13496;51.040;13.680;2023-05-10T23:30:05;99533.25;;;22.64;45.34
25638;BME280;13496;51.040;13.680;2023-05-10T23:35:07;99530.03;;;22.62;45.14
25638;BME280;13496;51.040;13.680;2023-05-10T23:40:09;99531.72;;;22.57;45.48
25638;BME280;13496;51.040;13.680;2023-05-10T23:45:11;99537.81;;;22.57;45.14
25638;BME280;13496;51.040;13.680;2023-05-10T23:50:13;99531.94;;;22.55;45.37
25638;BME280;13496;51.040;13.680;2023-05-10T23:55:14;99529.75;;;22.52;45.38
